METAR Data
IDs: Format: Raw Decoded Include TAF

Data at: 0430 UTC 26 Sep 2018

KIMS 260415Z AUTO 20009KT 10SM BKN008 BKN013 OVC080 22/21 A3000 RMK AO1
KIMS 260355Z AUTO 20006KT 10SM BKN008 OVC080 22/21 A3001 RMK AO1
KIMS 260335Z AUTO 20006KT 10SM BKN008 BKN013 22/21 A3000 RMK AO1
KIMS 260315Z AUTO 18006KT 10SM BKN010 BKN013 BKN090 22/21 A3000 RMK AO1
KIMS 260255Z AUTO 19006KT 10SM BKN010 BKN090 22/21 A3000 RMK AO1
KIMS 260235Z AUTO 19006KT 10SM BKN010 BKN100 22/21 A3000 RMK AO1
KIMS 260215Z AUTO 19006KT 10SM BKN010 BKN022 BKN100 22/21 A3000 RMK AO1
KIMS 260155Z AUTO 19008KT 10SM BKN008 OVC012 22/21 A2999 RMK AO1
KIMS 260135Z AUTO 18007KT 10SM OVC008 22/21 A2999 RMK AO1
KIMS 260115Z AUTO 18006KT 10SM BKN008 BKN017 BKN085 22/21 A2999 RMK AO1
KIMS 260055Z AUTO 15007KT 10SM SCT017 SCT022 SCT031 22/21 A2998 RMK AO1
KIMS 260035Z AUTO 17006KT 10SM SCT015 SCT027 BKN034 22/21 A2999 RMK AO1
KIMS 260015Z AUTO 17004KT 10SM SCT025 SCT036 OVC046 22/20 A2998 RMK AO1
KIMS 252355Z AUTO 19003KT 10SM BKN046 BKN050 22/20 A2998 RMK AO1
KIMS 252335Z AUTO 19006KT 10SM CLR 22/20 A2998 RMK AO1
KIMS 252315Z AUTO 20005KT 10SM SCT013 22/20 A2998 RMK AO1
KIMS 252255Z AUTO 21009G17KT 10SM SCT015 SCT021 SCT028 23/20 A2998 RMK AO1
KIMS 252235Z AUTO 21014G20KT 10SM SCT017 SCT025 BKN032 23/20 A2999 RMK AO1
KIMS 252215Z AUTO 21009G18KT 10SM SCT017 BKN025 BKN034 23/21 A2998 RMK AO1
KIMS 252155Z AUTO 20007G15KT 10SM SCT029 SCT034 23/21 A2997 RMK AO1
KIMS 252135Z AUTO 16009G14KT 10SM SCT046 SCT055 SCT065 23/21 A2996 RMK AO1
KIMS 252115Z AUTO 14008KT 7SM SCT027 SCT040 BKN049 23/21 A2996 RMK AO1
KIMS 252055Z AUTO 23004KT 7SM SCT025 SCT032 BKN044 23/21 A2998 RMK AO1
KIMS 252035Z AUTO 18007KT 10SM SCT036 SCT047 BKN060 24/21 A2996 RMK AO1
KIMS 252015Z AUTO 15005KT 10SM SCT037 SCT047 SCT080 25/21 A2997 RMK AO1
KIMS 251955Z AUTO 18008G15KT 10SM SCT100 25/21 A2999 RMK AO1
KIMS 251935Z AUTO 17010G18KT 10SM SCT019 SCT025 BKN100 25/21 A2999 RMK AO1
KIMS 251915Z AUTO 19008KT 10SM SCT017 BKN023 BKN027 25/21 A3001 RMK AO1
KIMS 251855Z AUTO 15006KT 10SM SCT015 BKN022 BKN029 25/21 A3001 RMK AO1
KIMS 251835Z AUTO 19008KT 10SM BKN017 OVC023 24/21 A3003 RMK AO1
KIMS 251815Z AUTO 18006KT 10SM OVC025 24/21 A3004 RMK AO1
KIMS 251755Z AUTO 16005KT 10SM OVC023 23/21 A3004 RMK AO1
KIMS 251735Z AUTO 19004KT 10SM OVC021 23/21 A3007 RMK AO1
KIMS 251715Z AUTO 19007KT 10SM OVC019 23/21 A3008 RMK AO1
KIMS 251655Z AUTO 20005KT 10SM OVC023 23/21 A3008 RMK AO1
KIMS 251635Z AUTO 20008KT 10SM SCT014 OVC023 23/21 A3008 RMK AO1
KIMS 251615Z AUTO 19006KT 10SM OVC018 23/21 A3007 RMK AO1
KIMS 251555Z AUTO 20007KT 10SM OVC018 23/21 A3007 RMK AO1
KIMS 251535Z AUTO 18009KT 10SM BKN013 OVC021 22/21 A3006 RMK AO1
KIMS 251515Z AUTO 19009KT 10SM OVC013 22/20 A3007 RMK AO1
KIMS 251455Z AUTO 19007KT 10SM OVC011 22/20 A3008 RMK AO1
KIMS 251435Z AUTO 19009KT 10SM OVC011 22/20 A3007 RMK AO1
KIMS 251415Z AUTO 19010KT 10SM OVC011 22/20 A3007 RMK AO1
KIMS 251355Z AUTO 19009KT 10SM OVC011 22/20 A3007 RMK AO1
KIMS 251335Z AUTO 19009KT 10SM OVC011 22/20 A3007 RMK AO1
KIMS 251315Z AUTO 18008KT 10SM OVC013 22/21 A3006 RMK AO1
KIMS 251255Z AUTO 18009G15KT 10SM OVC011 22/21 A3007 RMK AO1
KIMS 251235Z AUTO 19009G14KT 10SM OVC011 22/21 A3007 RMK AO1
KIMS 251215Z AUTO 18007KT 10SM OVC009 21/20 A3007 RMK AO1
KIMS 251155Z AUTO 18007KT 10SM OVC009 21/20 A3006 RMK AO1
KIMS 251135Z AUTO 18006KT 10SM OVC009 21/20 A3006 RMK AO1
KIMS 251115Z AUTO 17008KT 10SM OVC009 21/20 A3006 RMK AO1
KIMS 251055Z AUTO 19009KT 10SM OVC009 21/20 A3006 RMK AO1
KIMS 251035Z AUTO 18008KT 10SM OVC009 21/20 A3005 RMK AO1
KIMS 251015Z AUTO 18006KT 10SM OVC009 21/20 A3005 RMK AO1
KIMS 250955Z AUTO 17006KT 10SM OVC009 21/20 A3005 RMK AO1
KIMS 250935Z AUTO 18008KT 10SM OVC009 21/20 A3005 RMK AO1
KIMS 250915Z AUTO 17006KT 10SM OVC009 21/20 A3005 RMK AO1
KIMS 250855Z AUTO 17006KT 10SM OVC011 21/20 A3005 RMK AO1
KIMS 250835Z AUTO 17007KT 7SM OVC009 21/20 A3004 RMK AO1
KIMS 250815Z AUTO 17010KT 10SM OVC009 21/20 A3005 RMK AO1
KIMS 250755Z AUTO 17005KT 10SM SCT005 BKN009 OVC013 21/20 A3005 RMK AO1
KIMS 250735Z AUTO 16005KT 10SM BKN008 OVC013 21/20 A3005 RMK AO1
KIMS 250715Z AUTO 16007KT 10SM BKN008 OVC013 21/20 A3005 RMK AO1
KIMS 250655Z AUTO 16007KT 10SM BKN008 OVC013 21/20 A3005 RMK AO1
KIMS 250635Z AUTO 16006KT 10SM OVC008 21/20 A3005 RMK AO1
KIMS 250615Z AUTO 16005KT 10SM BKN008 OVC013 21/20 A3005 RMK AO1
KIMS 250555Z AUTO 16006KT 10SM OVC008 21/20 A3006 RMK AO1
KIMS 250535Z AUTO 16006KT 10SM OVC008 21/20 A3006 RMK AO1
KIMS 250515Z AUTO 17007KT 149V209 10SM OVC008 21/20 A3006 RMK AO1
KIMS 250455Z AUTO 17006KT 10SM OVC008 21/20 A3007 RMK AO1
KIMS 250435Z AUTO 17006KT 10SM OVC008 21/20 A3007 RMK AO1
KIMS 250415Z AUTO 17004KT 10SM OVC008 21/20 A3007 RMK AO1
KIMS 250355Z AUTO 17005KT 10SM OVC008 21/20 A3007 RMK AO1
KIMS 250335Z AUTO 18005KT 10SM OVC008 21/20 A3007 RMK AO1
KIMS 250315Z AUTO 17004KT 10SM OVC008 21/20 A3007 RMK AO1
KIMS 250255Z AUTO 18007KT 10SM BKN008 OVC011 21/20 A3006 RMK AO1
KIMS 250235Z AUTO 17008KT 10SM OVC006 21/20 A3006 RMK AO1
KIMS 250215Z AUTO 17010KT 10SM OVC006 21/20 A3005 RMK AO1
KIMS 250155Z AUTO 17008KT 10SM OVC008 21/20 A3005 RMK AO1
KIMS 250135Z AUTO 16008KT 10SM BKN008 OVC011 21/20 A3005 RMK AO1
KIMS 250115Z AUTO 16008KT 10SM OVC008 21/20 A3004 RMK AO1
KIMS 250055Z AUTO 16007KT 7SM OVC007 21/20 A3003 RMK AO1
KIMS 250035Z AUTO 17005KT 7SM OVC007 21/20 A3003 RMK AO1
KIMS 250015Z AUTO 16006KT 10SM OVC005 21/20 A3003 RMK AO1
KIMS 242355Z AUTO 17007KT 3SM BKN005 OVC012 21/20 A3002 RMK AO1
KIMS 242336Z AUTO 15011G15KT 7SM SCT007 BKN015 OVC028 21/20 A3003 RMK AO1
KIMS 242315Z AUTO 16006KT 10SM SCT007 BKN031 OVC090 21/20 A3003 RMK AO1
KIMS 242255Z AUTO 16006KT 10SM SCT005 BKN009 OVC027 21/20 A3003 RMK AO1
KIMS 242235Z AUTO 15008KT 10SM SCT004 BKN009 OVC023 21/20 A3002 RMK AO1
KIMS 242215Z AUTO 16006KT 10SM SCT005 BKN009 OVC020 21/20 A3002 RMK AO1
KIMS 242155Z AUTO 19006KT 10SM BKN005 BKN009 OVC013 21/20 A3002 RMK AO1
KIMS 242135Z AUTO 17007KT 10SM BKN007 OVC016 21/20 A3002 RMK AO1
KIMS 242115Z AUTO 15008KT 10SM BKN007 OVC021 21/20 A3001 RMK AO1
KIMS 242055Z AUTO 17008KT 2 1/2SM BKN007 BKN011 OVC018 21/20 A3002 RMK AO1
KIMS 242035Z AUTO 15008KT 1 3/4SM BKN009 OVC014 21/20 A3002 RMK AO1
KIMS 242015Z AUTO 14008KT 4SM OVC009 21/20 A3003 RMK AO1
KIMS 241955Z AUTO 15007KT 10SM OVC009 21/20 A3003 RMK AO1
KIMS 241935Z AUTO 14007KT 10SM OVC009 21/20 A3003 RMK AO1
KIMS 241915Z AUTO 14005KT 10SM BKN009 BKN014 OVC031 21/20 A3004 RMK AO1
KIMS 241855Z AUTO 13007KT 099V159 10SM BKN007 BKN013 OVC031 21/20 A3004 RMK AO1
KIMS 241835Z AUTO 14004KT 10SM BKN008 OVC013 21/20 A3005 RMK AO1
KIMS 241815Z AUTO 12005KT 10SM SCT008 OVC014 21/20 A3006 RMK AO1
KIMS 241755Z AUTO 13006KT 7SM SCT005 BKN008 OVC013 21/20 A3007 RMK AO1
KIMS 241735Z AUTO 11007KT 7SM SCT004 BKN008 OVC029 20/20 A3008 RMK AO1
KIMS 241715Z AUTO 10006KT 3SM SCT002 BKN006 OVC020 20/20 A3008 RMK AO1
KIMS 241655Z AUTO 11006KT 1SM OVC004 20/19 A3008 RMK AO1
KIMS 241635Z AUTO 11006KT 3SM BKN007 OVC013 20/19 A3009 RMK AO1